Time,TemperatureF,DewpointF,PressureIn,WindDirection,WindDirectionDegrees,WindSpeedMPH,WindSpeedGustMPH,Humidity,HourlyPrecipIn,Conditions,Clouds,dailyrainin,SoftwareType,DateUTC
2013-10-26 00:01:00,42.2,37.0,29.30,SW,225,4.0,7.0,81,0.00,,,0.00,Rainwise IP-100,2013-10-26 04:01:00,
2013-10-26 00:06:00,42.3,37.0,29.30,SW,225,2.0,7.0,81,0.00,,,0.00,Rainwise IP-100,2013-10-26 04:06:00,
2013-10-26 00:11:00,42.3,37.0,29.29,SW,225,4.0,6.0,80,0.00,,,0.00,Rainwise IP-100,2013-10-26 04:11:00,
2013-10-26 00:16:00,42.4,37.0,29.29,South,180,1.0,9.0,80,0.00,,,0.00,Rainwise IP-100,2013-10-26 04:16:00,
2013-10-26 00:21:00,42.4,37.0,29.29,South,180,2.0,4.0,80,0.00,,,0.00,Rainwise IP-100,2013-10-26 04:21:00,
2013-10-26 00:26:00,42.3,37.0,29.29,South,180,1.0,3.0,81,0.00,,,0.00,Rainwise IP-100,2013-10-26 04:26:00,
2013-10-26 00:31:00,42.2,37.0,29.29,SW,225,2.0,2.0,81,0.00,,,0.00,Rainwise IP-100,2013-10-26 04:31:00,
2013-10-26 00:36:00,42.1,37.0,29.30,South,180,1.0,3.0,82,0.00,,,0.00,Rainwise IP-100,2013-10-26 04:36:00,
2013-10-26 00:41:00,42.1,37.0,29.30,South,180,2.0,3.0,81,0.00,,,0.00,Rainwise IP-100,2013-10-26 04:41:00,
2013-10-26 00:46:00,41.9,37.0,29.29,South,180,2.0,2.0,83,0.00,,,0.00,Rainwise IP-100,2013-10-26 04:46:00,
2013-10-26 00:51:00,41.8,38.0,29.29,South,180,2.0,2.0,85,0.00,,,0.00,Rainwise IP-100,2013-10-26 04:51:00,
2013-10-26 00:56:00,41.7,38.0,29.29,South,180,1.0,4.0,84,0.00,,,0.00,Rainwise IP-100,2013-10-26 04:56:00,
2013-10-26 01:01:00,41.7,38.0,29.29,South,180,2.0,2.0,85,0.00,,,0.00,Rainwise IP-100,2013-10-26 05:01:00,
2013-10-26 01:06:00,41.6,38.0,29.28,South,180,3.0,3.0,85,0.00,,,0.00,Rainwise IP-100,2013-10-26 05:06:00,
2013-10-26 01:11:00,41.7,38.0,29.28,South,180,2.0,4.0,84,0.00,,,0.00,Rainwise IP-100,2013-10-26 05:11:00,
2013-10-26 01:16:00,41.6,38.0,29.29,South,180,2.0,3.0,84,0.00,,,0.00,Rainwise IP-100,2013-10-26 05:16:00,
2013-10-26 01:21:00,41.7,38.0,29.28,South,180,1.0,4.0,84,0.00,,,0.00,Rainwise IP-100,2013-10-26 05:21:00,
2013-10-26 01:26:00,41.7,38.0,29.28,South,180,2.0,2.0,84,0.00,,,0.00,Rainwise IP-100,2013-10-26 05:26:00,
2013-10-26 01:31:00,41.6,38.0,29.28,South,180,2.0,3.0,84,0.00,,,0.00,Rainwise IP-100,2013-10-26 05:31:00,
2013-10-26 01:36:00,41.6,38.0,29.28,SSE,157,2.0,2.0,85,0.00,,,0.00,Rainwise IP-100,2013-10-26 05:36:00,
2013-10-26 01:41:00,41.6,38.0,29.27,SSE,157,1.0,2.0,86,0.00,,,0.00,Rainwise IP-100,2013-10-26 05:41:00,
2013-10-26 01:46:00,41.5,38.0,29.28,SSE,157,2.0,2.0,86,0.00,,,0.00,Rainwise IP-100,2013-10-26 05:46:00,
2013-10-26 01:51:00,41.3,38.0,29.27,SSE,157,2.0,2.0,87,0.00,,,0.00,Rainwise IP-100,2013-10-26 05:51:00,
2013-10-26 01:56:00,41.2,38.0,29.27,SSE,157,2.0,2.0,88,0.00,,,0.00,Rainwise IP-100,2013-10-26 05:56:00,
2013-10-26 02:01:00,41.2,38.0,29.27,SSE,157,2.0,2.0,88,0.00,,,0.00,Rainwise IP-100,2013-10-26 06:01:00,
2013-10-26 02:06:00,41.0,38.0,29.27,SSE,157,1.0,2.0,89,0.00,,,0.00,Rainwise IP-100,2013-10-26 06:06:00,
2013-10-26 02:11:00,40.9,38.0,29.27,SSE,157,2.0,2.0,89,0.00,,,0.00,Rainwise IP-100,2013-10-26 06:11:00,
2013-10-26 02:16:00,40.8,38.0,29.26,SSE,157,1.0,3.0,90,0.00,,,0.00,Rainwise IP-100,2013-10-26 06:16:00,
2013-10-26 02:21:00,40.7,38.0,29.26,SE,135,3.0,3.0,90,0.00,,,0.00,Rainwise IP-100,2013-10-26 06:21:00,
2013-10-26 02:26:00,40.7,38.0,29.26,SSE,157,1.0,4.0,90,0.00,,,0.00,Rainwise IP-100,2013-10-26 06:26:00,
2013-10-26 02:31:00,40.6,38.0,29.25,SSE,157,2.0,4.0,89,0.00,,,0.00,Rainwise IP-100,2013-10-26 06:31:00,
2013-10-26 02:36:00,40.7,38.0,29.25,SSE,157,3.0,5.0,87,0.00,,,0.00,Rainwise IP-100,2013-10-26 06:36:00,
2013-10-26 02:41:00,40.8,37.0,29.25,SSE,157,3.0,7.0,85,0.00,,,0.00,Rainwise IP-100,2013-10-26 06:41:00,
2013-10-26 02:46:00,40.8,37.0,29.25,SSE,157,6.0,6.0,84,0.00,,,0.00,Rainwise IP-100,2013-10-26 06:46:00,
2013-10-26 02:51:00,40.8,37.0,29.25,South,180,3.0,6.0,84,0.00,,,0.00,Rainwise IP-100,2013-10-26 06:51:00,
2013-10-26 02:56:00,40.8,37.0,29.24,South,180,4.0,8.0,83,0.00,,,0.00,Rainwise IP-100,2013-10-26 06:56:00,
2013-10-26 03:01:00,40.9,36.0,29.24,SSE,157,3.0,6.0,82,0.00,,,0.00,Rainwise IP-100,2013-10-26 07:01:00,
2013-10-26 03:06:00,40.9,36.0,29.23,SE,135,2.0,6.0,82,0.00,,,0.00,Rainwise IP-100,2013-10-26 07:06:00,
2013-10-26 03:11:00,40.9,36.0,29.23,SSE,157,4.0,5.0,81,0.00,,,0.00,Rainwise IP-100,2013-10-26 07:11:00,
2013-10-26 03:16:00,40.9,36.0,29.23,SSE,157,3.0,5.0,82,0.00,,,0.00,Rainwise IP-100,2013-10-26 07:16:00,
2013-10-26 03:21:00,40.9,36.0,29.23,SSE,157,3.0,6.0,81,0.00,,,0.00,Rainwise IP-100,2013-10-26 07:21:00,
2013-10-26 03:26:00,40.9,36.0,29.23,SSE,157,2.0,4.0,80,0.00,,,0.00,Rainwise IP-100,2013-10-26 07:26:00,
2013-10-26 03:31:00,40.9,36.0,29.22,SSE,157,1.0,2.0,81,0.00,,,0.00,Rainwise IP-100,2013-10-26 07:31:00,
2013-10-26 03:36:00,40.8,36.0,29.22,SSE,157,1.0,3.0,82,0.00,,,0.00,Rainwise IP-100,2013-10-26 07:36:00,
2013-10-26 03:41:00,40.7,36.0,29.21,SSE,157,2.0,4.0,82,0.00,,,0.00,Rainwise IP-100,2013-10-26 07:41:00,
2013-10-26 03:46:00,40.7,36.0,29.21,SSE,157,2.0,4.0,80,0.00,,,0.00,Rainwise IP-100,2013-10-26 07:46:00,
2013-10-26 03:51:00,40.9,35.0,29.21,SSE,157,6.0,6.0,78,0.00,,,0.00,Rainwise IP-100,2013-10-26 07:51:00,
2013-10-26 03:56:00,41.2,35.0,29.21,SSE,157,1.0,7.0,76,0.00,,,0.00,Rainwise IP-100,2013-10-26 07:56:00,
2013-10-26 04:01:00,41.6,35.0,29.20,SSE,157,4.0,8.0,73,0.00,,,0.00,Rainwise IP-100,2013-10-26 08:01:00,
2013-10-26 04:06:00,41.8,35.0,29.20,South,180,6.0,9.0,73,0.00,,,0.00,Rainwise IP-100,2013-10-26 08:06:00,
2013-10-26 04:11:00,42.0,33.0,29.19,SSW,202,8.0,11.0,71,0.00,,,0.00,Rainwise IP-100,2013-10-26 08:11:00,
2013-10-26 04:16:00,42.3,33.0,29.19,SSW,202,5.0,11.0,70,0.00,,,0.00,Rainwise IP-100,2013-10-26 08:16:00,
2013-10-26 04:21:00,42.4,33.0,29.19,SSE,157,6.0,11.0,70,0.00,,,0.00,Rainwise IP-100,2013-10-26 08:21:00,
2013-10-26 04:26:00,42.6,33.0,29.19,SSW,202,8.0,11.0,69,0.00,,,0.00,Rainwise IP-100,2013-10-26 08:26:00,
2013-10-26 04:31:00,42.7,33.0,29.19,South,180,6.0,12.0,67,0.00,,,0.00,Rainwise IP-100,2013-10-26 08:31:00,
2013-10-26 04:36:00,42.8,32.0,29.19,South,180,7.0,12.0,66,0.00,,,0.00,Rainwise IP-100,2013-10-26 08:36:00,
2013-10-26 04:41:00,42.9,32.0,29.19,South,180,9.0,16.0,64,0.00,,,0.00,Rainwise IP-100,2013-10-26 08:41:00,
2013-10-26 04:46:00,43.1,32.0,29.20,SSW,202,2.0,13.0,63,0.00,,,0.00,Rainwise IP-100,2013-10-26 08:46:00,
2013-10-26 04:51:00,43.1,31.0,29.19,South,180,7.0,13.0,62,0.00,,,0.00,Rainwise IP-100,2013-10-26 08:51:00,
2013-10-26 04:56:00,43.1,31.0,29.19,South,180,4.0,11.0,62,0.00,,,0.00,Rainwise IP-100,2013-10-26 08:56:00,
2013-10-26 05:01:00,42.9,32.0,29.19,South,180,6.0,11.0,63,0.00,,,0.00,Rainwise IP-100,2013-10-26 09:01:00,
2013-10-26 05:06:00,42.9,31.0,29.18,South,180,6.0,14.0,62,0.00,,,0.00,Rainwise IP-100,2013-10-26 09:06:00,
2013-10-26 05:11:00,42.9,31.0,29.19,SSW,202,1.0,16.0,61,0.00,,,0.00,Rainwise IP-100,2013-10-26 09:11:00,
2013-10-26 05:16:00,42.9,31.0,29.18,SSW,202,4.0,16.0,61,0.00,,,0.00,Rainwise IP-100,2013-10-26 09:16:00,
2013-10-26 05:21:00,42.9,31.0,29.18,SW,225,4.0,16.0,61,0.00,,,0.00,Rainwise IP-100,2013-10-26 09:21:00,
2013-10-26 05:26:00,42.9,31.0,29.18,SW,225,10.0,14.0,61,0.00,,,0.00,Rainwise IP-100,2013-10-26 09:26:00,
2013-10-26 05:31:00,42.8,31.0,29.17,SSW,202,4.0,16.0,61,0.00,,,0.00,Rainwise IP-100,2013-10-26 09:31:00,
2013-10-26 05:36:00,42.8,31.0,29.17,South,180,13.0,19.0,61,0.00,,,0.00,Rainwise IP-100,2013-10-26 09:36:00,
2013-10-26 05:41:00,42.8,31.0,29.17,SW,225,6.0,19.0,60,0.00,,,0.00,Rainwise IP-100,2013-10-26 09:41:00,
2013-10-26 05:46:00,42.8,31.0,29.17,SSW,202,6.0,17.0,61,0.00,,,0.00,Rainwise IP-100,2013-10-26 09:46:00,
2013-10-26 05:51:00,42.7,31.0,29.17,South,180,4.0,14.0,61,0.00,,,0.00,Rainwise IP-100,2013-10-26 09:51:00,
2013-10-26 05:56:00,42.6,31.0,29.17,SSE,157,8.0,12.0,61,0.00,,,0.00,Rainwise IP-100,2013-10-26 09:56:00,
2013-10-26 06:01:00,42.7,31.0,29.17,SSW,202,7.0,18.0,60,0.00,,,0.00,Rainwise IP-100,2013-10-26 10:01:00,
2013-10-26 06:06:00,42.6,31.0,29.17,South,180,10.0,17.0,59,0.00,,,0.00,Rainwise IP-100,2013-10-26 10:06:00,
2013-10-26 06:11:00,42.6,31.0,29.17,SW,225,6.0,14.0,61,0.00,,,0.00,Rainwise IP-100,2013-10-26 10:11:00,
2013-10-26 06:16:00,42.6,31.0,29.17,South,180,7.0,14.0,61,0.00,,,0.00,Rainwise IP-100,2013-10-26 10:16:00,
2013-10-26 06:21:00,42.5,31.0,29.17,SSW,202,9.0,14.0,60,0.00,,,0.00,Rainwise IP-100,2013-10-26 10:21:00,
2013-10-26 06:26:00,42.6,31.0,29.17,South,180,8.0,15.0,60,0.00,,,0.00,Rainwise IP-100,2013-10-26 10:26:00,
2013-10-26 06:31:00,42.6,31.0,29.17,South,180,6.0,12.0,59,0.00,,,0.00,Rainwise IP-100,2013-10-26 10:31:00,
2013-10-26 06:36:00,42.5,31.0,29.17,SSW,202,6.0,9.0,61,0.00,,,0.00,Rainwise IP-100,2013-10-26 10:36:00,
2013-10-26 06:41:00,42.5,31.0,29.17,South,180,3.0,11.0,60,0.00,,,0.00,Rainwise IP-100,2013-10-26 10:41:00,
2013-10-26 06:46:00,42.6,29.0,29.17,SSE,157,4.0,15.0,58,0.00,,,0.00,Rainwise IP-100,2013-10-26 10:46:00,
2013-10-26 06:51:00,42.6,29.0,29.17,South,180,4.0,14.0,58,0.00,,,0.00,Rainwise IP-100,2013-10-26 10:51:00,
2013-10-26 06:56:00,42.6,29.0,29.16,South,180,9.0,16.0,58,0.00,,,0.00,Rainwise IP-100,2013-10-26 10:56:00,
2013-10-26 07:01:00,42.6,29.0,29.16,South,180,7.0,14.0,58,0.00,,,0.00,Rainwise IP-100,2013-10-26 11:01:00,
2013-10-26 07:06:00,42.6,31.0,29.16,SSE,157,6.0,17.0,59,0.00,,,0.00,Rainwise IP-100,2013-10-26 11:06:00,
2013-10-26 07:11:00,42.6,31.0,29.16,South,180,6.0,13.0,59,0.00,,,0.00,Rainwise IP-100,2013-10-26 11:11:00,
2013-10-26 07:16:00,42.6,31.0,29.15,SSE,157,6.0,14.0,59,0.00,,,0.00,Rainwise IP-100,2013-10-26 11:16:00,
2013-10-26 07:22:00,42.4,29.0,29.15,SSE,157,7.0,12.0,61,0.00,,,0.00,Rainwise IP-100,2013-10-26 11:22:00,
2013-10-26 07:27:00,42.1,31.0,29.15,SSE,157,9.0,12.0,62,0.00,,,0.00,Rainwise IP-100,2013-10-26 11:27:00,
2013-10-26 07:32:00,41.8,31.0,29.15,SSE,157,11.0,11.0,64,0.00,,,0.00,Rainwise IP-100,2013-10-26 11:32:00,
2013-10-26 07:37:00,41.6,32.0,29.15,SSE,157,7.0,13.0,65,0.00,,,0.00,Rainwise IP-100,2013-10-26 11:37:00,
2013-10-26 07:42:00,41.4,31.0,29.15,SSE,157,6.0,12.0,66,0.00,,,0.00,Rainwise IP-100,2013-10-26 11:42:00,
2013-10-26 07:47:00,41.2,31.0,29.15,SSE,157,6.0,12.0,66,0.00,,,0.00,Rainwise IP-100,2013-10-26 11:47:00,
2013-10-26 07:52:00,41.2,31.0,29.15,South,180,6.0,12.0,66,0.00,,,0.00,Rainwise IP-100,2013-10-26 11:52:00,
2013-10-26 07:56:00,41.2,31.0,29.15,SSE,157,7.0,13.0,67,0.00,,,0.00,Rainwise IP-100,2013-10-26 11:56:00,
2013-10-26 08:02:00,41.1,31.0,29.14,SSE,157,4.0,11.0,67,0.00,,,0.00,Rainwise IP-100,2013-10-26 12:02:00,
2013-10-26 08:07:00,40.9,32.0,29.14,SSE,157,6.0,10.0,69,0.00,,,0.00,Rainwise IP-100,2013-10-26 12:07:00,
2013-10-26 08:12:00,40.7,32.0,29.14,SE,135,5.0,9.0,70,0.00,,,0.00,Rainwise IP-100,2013-10-26 12:12:00,
2013-10-26 08:17:00,40.6,32.0,29.14,SSE,157,5.0,9.0,71,0.00,,,0.00,Rainwise IP-100,2013-10-26 12:17:00,
2013-10-26 08:22:00,40.5,32.0,29.13,SE,135,5.0,9.0,70,0.00,,,0.00,Rainwise IP-100,2013-10-26 12:22:00,
2013-10-26 08:27:00,40.5,32.0,29.13,SE,135,6.0,9.0,71,0.00,,,0.00,Rainwise IP-100,2013-10-26 12:27:00,
2013-10-26 08:32:00,40.5,32.0,29.13,SE,135,6.0,11.0,70,0.00,,,0.00,Rainwise IP-100,2013-10-26 12:32:00,
2013-10-26 08:37:00,40.5,32.0,29.13,SE,135,4.0,11.0,70,0.00,,,0.00,Rainwise IP-100,2013-10-26 12:37:00,
2013-10-26 08:42:00,40.5,32.0,29.13,SSE,157,5.0,8.0,70,0.00,,,0.00,Rainwise IP-100,2013-10-26 12:42:00,
2013-10-26 08:47:00,40.5,32.0,29.13,SE,135,5.0,11.0,71,0.00,,,0.00,Rainwise IP-100,2013-10-26 12:47:00,
2013-10-26 08:52:00,40.5,32.0,29.13,SE,135,4.0,10.0,71,0.00,,,0.00,Rainwise IP-100,2013-10-26 12:52:00,
2013-10-26 08:57:00,40.7,32.0,29.13,SE,135,9.0,11.0,69,0.00,,,0.00,Rainwise IP-100,2013-10-26 12:57:00,
2013-10-26 09:02:00,40.8,32.0,29.13,SSE,157,8.0,11.0,69,0.00,,,0.00,Rainwise IP-100,2013-10-26 13:02:00,
2013-10-26 09:07:00,40.8,32.0,29.12,SSE,157,7.0,10.0,70,0.00,,,0.00,Rainwise IP-100,2013-10-26 13:07:00,
2013-10-26 09:12:00,40.9,31.0,29.11,SSE,157,6.0,14.0,67,0.00,,,0.00,Rainwise IP-100,2013-10-26 13:12:00,
2013-10-26 09:17:00,41.1,31.0,29.11,SE,135,7.0,11.0,67,0.00,,,0.00,Rainwise IP-100,2013-10-26 13:17:00,
2013-10-26 09:22:00,41.2,31.0,29.11,South,180,8.0,14.0,65,0.00,,,0.00,Rainwise IP-100,2013-10-26 13:22:00,
2013-10-26 09:27:00,41.5,31.0,29.11,SSE,157,4.0,14.0,63,0.00,,,0.00,Rainwise IP-100,2013-10-26 13:27:00,
2013-10-26 09:32:00,41.7,31.0,29.11,South,180,6.0,13.0,62,0.00,,,0.00,Rainwise IP-100,2013-10-26 13:32:00,
2013-10-26 09:37:00,41.8,31.0,29.11,SSE,157,4.0,14.0,64,0.00,,,0.00,Rainwise IP-100,2013-10-26 13:37:00,
2013-10-26 09:42:00,41.9,31.0,29.11,South,180,6.0,13.0,63,0.00,,,0.00,Rainwise IP-100,2013-10-26 13:42:00,
2013-10-26 09:47:00,42.1,31.0,29.11,SSE,157,11.0,15.0,62,0.00,,,0.00,Rainwise IP-100,2013-10-26 13:47:00,
2013-10-26 09:52:00,42.2,29.0,29.11,South,180,7.0,19.0,61,0.00,,,0.00,Rainwise IP-100,2013-10-26 13:52:00,
2013-10-26 09:57:00,42.3,31.0,29.11,SSE,157,9.0,12.0,62,0.00,,,0.00,Rainwise IP-100,2013-10-26 13:57:00,
2013-10-26 10:02:00,42.4,31.0,29.10,South,180,10.0,16.0,62,0.00,,,0.00,Rainwise IP-100,2013-10-26 14:02:00,
2013-10-26 10:07:00,42.5,31.0,29.10,SE,135,9.0,19.0,60,0.00,,,0.00,Rainwise IP-100,2013-10-26 14:07:00,
2013-10-26 10:12:00,42.6,31.0,29.10,South,180,8.0,14.0,62,0.00,,,0.00,Rainwise IP-100,2013-10-26 14:12:00,
2013-10-26 10:17:00,42.7,31.0,29.09,South,180,8.0,13.0,60,0.00,,,0.00,Rainwise IP-100,2013-10-26 14:17:00,
2013-10-26 10:22:00,42.7,31.0,29.09,South,180,7.0,13.0,61,0.00,,,0.00,Rainwise IP-100,2013-10-26 14:22:00,
2013-10-26 10:27:00,42.7,31.0,29.09,South,180,11.0,14.0,61,0.00,,,0.00,Rainwise IP-100,2013-10-26 14:27:00,
2013-10-26 10:32:00,42.7,31.0,29.09,SSE,157,8.0,18.0,60,0.00,,,0.00,Rainwise IP-100,2013-10-26 14:32:00,
2013-10-26 10:37:00,42.7,31.0,29.09,South,180,6.0,16.0,60,0.00,,,0.00,Rainwise IP-100,2013-10-26 14:37:00,
2013-10-26 10:42:00,42.8,31.0,29.09,South,180,12.0,16.0,60,0.00,,,0.00,Rainwise IP-100,2013-10-26 14:42:00,
2013-10-26 10:47:00,42.9,31.0,29.08,SSE,157,9.0,15.0,61,0.00,,,0.00,Rainwise IP-100,2013-10-26 14:47:00,
2013-10-26 10:52:00,42.9,31.0,29.08,SSE,157,9.0,14.0,60,0.00,,,0.00,Rainwise IP-100,2013-10-26 14:52:00,
2013-10-26 10:57:00,43.0,31.0,29.08,SE,135,7.0,17.0,59,0.00,,,0.00,Rainwise IP-100,2013-10-26 14:57:00,
2013-10-26 11:02:00,43.2,31.0,29.07,SSE,157,7.0,15.0,61,0.00,,,0.00,Rainwise IP-100,2013-10-26 15:02:00,
2013-10-26 11:07:00,43.2,29.0,29.07,SSE,157,4.0,12.0,58,0.00,,,0.00,Rainwise IP-100,2013-10-26 15:07:00,
2013-10-26 11:12:00,43.4,31.0,29.07,SE,135,7.0,12.0,60,0.00,,,0.00,Rainwise IP-100,2013-10-26 15:12:00,
2013-10-26 11:17:00,43.6,31.0,29.07,SE,135,10.0,19.0,59,0.00,,,0.00,Rainwise IP-100,2013-10-26 15:17:00,
2013-10-26 11:22:00,43.8,31.0,29.07,South,180,8.0,16.0,58,0.00,,,0.00,Rainwise IP-100,2013-10-26 15:22:00,
2013-10-26 11:27:00,43.9,31.0,29.06,SSE,157,14.0,14.0,58,0.00,,,0.00,Rainwise IP-100,2013-10-26 15:27:00,
2013-10-26 11:32:00,44.1,31.0,29.05,South,180,12.0,16.0,58,0.00,,,0.00,Rainwise IP-100,2013-10-26 15:32:00,
2013-10-26 11:37:00,44.2,31.0,29.05,SSE,157,8.0,17.0,57,0.00,,,0.00,Rainwise IP-100,2013-10-26 15:37:00,
2013-10-26 11:42:00,44.4,29.0,29.05,SSE,157,11.0,14.0,56,0.00,,,0.00,Rainwise IP-100,2013-10-26 15:42:00,
2013-10-26 11:47:00,44.7,29.0,29.04,SSE,157,10.0,21.0,54,0.00,,,0.00,Rainwise IP-100,2013-10-26 15:47:00,
2013-10-26 11:52:00,44.9,31.0,29.04,South,180,12.0,19.0,55,0.00,,,0.00,Rainwise IP-100,2013-10-26 15:52:00,
2013-10-26 11:57:00,45.2,31.0,29.04,SSE,157,11.0,17.0,55,0.00,,,0.00,Rainwise IP-100,2013-10-26 15:57:00,
2013-10-26 12:02:00,45.5,29.0,29.04,SSE,157,15.0,15.0,53,0.00,,,0.00,Rainwise IP-100,2013-10-26 16:02:00,
2013-10-26 12:07:00,45.8,29.0,29.03,South,180,6.0,17.0,52,0.00,,,0.00,Rainwise IP-100,2013-10-26 16:07:00,
2013-10-26 12:12:00,45.9,29.0,29.03,SSE,157,16.0,21.0,51,0.00,,,0.00,Rainwise IP-100,2013-10-26 16:12:00,
2013-10-26 12:17:00,46.1,29.0,29.03,SSE,157,12.0,17.0,52,0.00,,,0.00,Rainwise IP-100,2013-10-26 16:17:00,
2013-10-26 12:22:00,46.2,29.0,29.03,South,180,6.0,17.0,52,0.00,,,0.00,Rainwise IP-100,2013-10-26 16:22:00,
2013-10-26 12:27:00,46.2,28.0,29.03,SSE,157,17.0,21.0,49,0.00,,,0.00,Rainwise IP-100,2013-10-26 16:27:00,
2013-10-26 12:32:00,46.3,29.0,29.03,SSE,157,9.0,24.0,50,0.00,,,0.00,Rainwise IP-100,2013-10-26 16:32:00,
2013-10-26 12:37:00,46.3,29.0,29.02,SSE,157,6.0,16.0,50,0.00,,,0.00,Rainwise IP-100,2013-10-26 16:37:00,
2013-10-26 12:42:00,46.5,29.0,29.02,SSE,157,11.0,23.0,49,0.00,,,0.00,Rainwise IP-100,2013-10-26 16:42:00,
2013-10-26 12:47:00,46.7,29.0,29.02,SSE,157,8.0,21.0,50,0.00,,,0.00,Rainwise IP-100,2013-10-26 16:47:00,
2013-10-26 12:52:00,46.9,29.0,29.01,SSE,157,14.0,22.0,49,0.00,,,0.00,Rainwise IP-100,2013-10-26 16:52:00,
2013-10-26 12:57:00,46.9,29.0,29.01,South,180,11.0,19.0,50,0.00,,,0.00,Rainwise IP-100,2013-10-26 16:57:00,
2013-10-26 13:02:00,47.1,29.0,29.00,South,180,9.0,13.0,50,0.00,,,0.00,Rainwise IP-100,2013-10-26 17:02:00,
2013-10-26 13:07:00,46.9,29.0,29.00,South,180,11.0,20.0,49,0.00,,,0.00,Rainwise IP-100,2013-10-26 17:07:00,
2013-10-26 13:12:00,46.9,29.0,29.00,South,180,9.0,19.0,50,0.00,,,0.00,Rainwise IP-100,2013-10-26 17:12:00,
2013-10-26 13:17:00,46.9,29.0,29.00,South,180,7.0,17.0,49,0.00,,,0.00,Rainwise IP-100,2013-10-26 17:17:00,
2013-10-26 13:22:00,46.9,29.0,29.00,South,180,6.0,14.0,50,0.00,,,0.00,Rainwise IP-100,2013-10-26 17:22:00,
2013-10-26 13:27:00,47.1,29.0,29.00,SSE,157,11.0,14.0,51,0.00,,,0.00,Rainwise IP-100,2013-10-26 17:27:00,
2013-10-26 13:32:00,47.1,29.0,28.99,SSE,157,9.0,16.0,50,0.00,,,0.00,Rainwise IP-100,2013-10-26 17:32:00,
2013-10-26 13:37:00,47.1,31.0,28.99,SSE,157,8.0,12.0,52,0.00,,,0.00,Rainwise IP-100,2013-10-26 17:37:00,
2013-10-26 13:42:00,47.0,29.0,28.99,South,180,12.0,16.0,51,0.00,,,0.00,Rainwise IP-100,2013-10-26 17:42:00,
2013-10-26 13:47:00,47.0,29.0,28.99,SSE,157,9.0,16.0,50,0.00,,,0.00,Rainwise IP-100,2013-10-26 17:47:00,
2013-10-26 13:52:00,46.9,31.0,28.99,South,180,7.0,16.0,52,0.00,,,0.00,Rainwise IP-100,2013-10-26 17:52:00,
2013-10-26 13:57:00,46.9,29.0,28.99,SE,135,6.0,16.0,51,0.00,,,0.00,Rainwise IP-100,2013-10-26 17:57:00,
2013-10-26 14:02:00,46.9,31.0,28.99,SSE,157,4.0,10.0,52,0.00,,,0.00,Rainwise IP-100,2013-10-26 18:02:00,
2013-10-26 14:07:00,47.1,31.0,28.99,SSE,157,4.0,9.0,52,0.00,,,0.00,Rainwise IP-100,2013-10-26 18:07:00,
2013-10-26 14:12:00,47.2,31.0,28.99,South,180,9.0,9.0,52,0.00,,,0.00,Rainwise IP-100,2013-10-26 18:12:00,
2013-10-26 14:17:00,47.6,29.0,28.99,SSE,157,11.0,12.0,48,0.00,,,0.00,Rainwise IP-100,2013-10-26 18:17:00,
2013-10-26 14:22:00,47.9,29.0,28.99,SSE,157,7.0,15.0,48,0.00,,,0.00,Rainwise IP-100,2013-10-26 18:22:00,
2013-10-26 14:27:00,48.1,29.0,28.99,SE,135,5.0,11.0,47,0.00,,,0.00,Rainwise IP-100,2013-10-26 18:27:00,
2013-10-26 14:32:00,48.1,29.0,28.99,SSW,202,6.0,12.0,48,0.00,,,0.00,Rainwise IP-100,2013-10-26 18:32:00,
2013-10-26 14:37:00,48.0,31.0,28.99,South,180,4.0,7.0,49,0.00,,,0.00,Rainwise IP-100,2013-10-26 18:37:00,
2013-10-26 14:42:00,48.0,29.0,28.99,SSW,202,9.0,9.0,48,0.00,,,0.00,Rainwise IP-100,2013-10-26 18:42:00,
2013-10-26 14:47:00,48.1,29.0,28.99,South,180,4.0,11.0,48,0.00,,,0.00,Rainwise IP-100,2013-10-26 18:47:00,
2013-10-26 14:52:00,48.1,31.0,28.99,South,180,1.0,7.0,50,0.00,,,0.00,Rainwise IP-100,2013-10-26 18:52:00,
2013-10-26 14:57:00,48.2,31.0,28.99,SSE,157,4.0,8.0,49,0.00,,,0.00,Rainwise IP-100,2013-10-26 18:57:00,
2013-10-26 15:02:00,48.3,31.0,29.00,SSE,157,6.0,6.0,50,0.00,,,0.00,Rainwise IP-100,2013-10-26 19:02:00,
2013-10-26 15:07:00,48.2,31.0,28.99,South,180,6.0,6.0,50,0.00,,,0.00,Rainwise IP-100,2013-10-26 19:07:00,
2013-10-26 15:12:00,48.3,31.0,29.00,SSW,202,4.0,6.0,51,0.00,,,0.00,Rainwise IP-100,2013-10-26 19:12:00,
2013-10-26 15:17:00,48.3,31.0,29.00,SSW,202,2.0,4.0,51,0.00,,,0.00,Rainwise IP-100,2013-10-26 19:17:00,
2013-10-26 15:22:00,48.4,31.0,29.00,SSE,157,2.0,6.0,50,0.00,,,0.00,Rainwise IP-100,2013-10-26 19:22:00,
2013-10-26 15:28:00,48.4,32.0,29.00,South,180,2.0,4.0,53,0.00,,,0.00,Rainwise IP-100,2013-10-26 19:28:00,
2013-10-26 15:33:00,48.4,31.0,29.00,South,180,4.0,7.0,51,0.00,,,0.00,Rainwise IP-100,2013-10-26 19:33:00,
2013-10-26 15:38:00,48.6,31.0,28.99,SSW,202,11.0,17.0,48,0.00,,,0.00,Rainwise IP-100,2013-10-26 19:38:00,
2013-10-26 15:43:00,48.7,31.0,28.99,South,180,7.0,22.0,48,0.00,,,0.00,Rainwise IP-100,2013-10-26 19:43:00,
2013-10-26 15:48:00,48.5,32.0,28.99,SSE,157,6.0,13.0,50,0.00,,,0.00,Rainwise IP-100,2013-10-26 19:48:00,
2013-10-26 15:53:00,48.5,32.0,28.99,South,180,3.0,11.0,50,0.00,,,0.00,Rainwise IP-100,2013-10-26 19:53:00,
2013-10-26 15:57:00,48.2,32.0,28.99,SW,225,5.0,7.0,52,0.00,,,0.00,Rainwise IP-100,2013-10-26 19:57:00,
2013-10-26 16:02:00,48.2,31.0,28.99,SSE,157,9.0,14.0,50,0.00,,,0.00,Rainwise IP-100,2013-10-26 20:02:00,
2013-10-26 16:07:00,48.4,31.0,28.99,WSW,247,1.0,11.0,51,0.00,,,0.00,Rainwise IP-100,2013-10-26 20:07:00,
2013-10-26 16:12:00,48.2,32.0,28.99,SSE,157,5.0,7.0,53,0.00,,,0.00,Rainwise IP-100,2013-10-26 20:12:00,
2013-10-26 16:17:00,48.2,31.0,28.99,SE,135,4.0,8.0,51,0.00,,,0.00,Rainwise IP-100,2013-10-26 20:17:00,
2013-10-26 16:22:00,48.0,32.0,28.99,SE,135,4.0,7.0,53,0.00,,,0.00,Rainwise IP-100,2013-10-26 20:22:00,
2013-10-26 16:27:00,48.4,31.0,28.99,SW,225,5.0,21.0,49,0.00,,,0.00,Rainwise IP-100,2013-10-26 20:27:00,
2013-10-26 16:33:00,48.8,31.0,28.99,SW,225,5.0,16.0,48,0.00,,,0.00,Rainwise IP-100,2013-10-26 20:33:00,
2013-10-26 16:38:00,48.7,31.0,28.99,SSW,202,2.0,10.0,49,0.00,,,0.00,Rainwise IP-100,2013-10-26 20:38:00,
2013-10-26 16:43:00,48.7,31.0,28.99,South,180,4.0,9.0,49,0.00,,,0.00,Rainwise IP-100,2013-10-26 20:43:00,
2013-10-26 16:48:00,48.8,31.0,28.99,South,180,4.0,12.0,48,0.00,,,0.00,Rainwise IP-100,2013-10-26 20:48:00,
2013-10-26 16:53:00,48.8,31.0,28.99,South,180,3.0,10.0,49,0.00,,,0.00,Rainwise IP-100,2013-10-26 20:53:00,
2013-10-26 16:58:00,48.7,32.0,28.99,SSW,202,10.0,10.0,50,0.00,,,0.00,Rainwise IP-100,2013-10-26 20:58:00,
2013-10-26 17:03:00,48.9,31.0,28.99,SW,225,6.0,14.0,48,0.00,,,0.00,Rainwise IP-100,2013-10-26 21:03:00,
2013-10-26 17:08:00,48.9,31.0,28.98,SSW,202,4.0,13.0,48,0.00,,,0.00,Rainwise IP-100,2013-10-26 21:08:00,
2013-10-26 17:13:00,48.9,31.0,28.99,SSE,157,2.0,12.0,49,0.00,,,0.00,Rainwise IP-100,2013-10-26 21:13:00,
2013-10-26 17:18:00,48.7,32.0,28.99,South,180,7.0,9.0,51,0.00,,,0.00,Rainwise IP-100,2013-10-26 21:18:00,
2013-10-26 17:23:00,48.7,32.0,28.99,South,180,6.0,9.0,50,0.00,,,0.00,Rainwise IP-100,2013-10-26 21:23:00,
2013-10-26 17:28:00,48.7,31.0,28.99,South,180,6.0,13.0,49,0.00,,,0.00,Rainwise IP-100,2013-10-26 21:28:00,
2013-10-26 17:33:00,48.7,31.0,28.99,SSW,202,10.0,14.0,49,0.00,,,0.00,Rainwise IP-100,2013-10-26 21:33:00,
2013-10-26 17:38:00,48.7,32.0,28.99,SSW,202,4.0,12.0,51,0.00,,,0.00,Rainwise IP-100,2013-10-26 21:38:00,
2013-10-26 17:43:00,48.5,32.0,28.99,South,180,2.0,13.0,51,0.00,,,0.00,Rainwise IP-100,2013-10-26 21:43:00,
2013-10-26 17:48:00,48.4,31.0,28.99,SSE,157,3.0,9.0,51,0.00,,,0.00,Rainwise IP-100,2013-10-26 21:48:00,
2013-10-26 17:53:00,48.2,32.0,28.99,SW,225,3.0,5.0,53,0.00,,,0.00,Rainwise IP-100,2013-10-26 21:53:00,
2013-10-26 17:58:00,48.0,32.0,28.99,South,180,4.0,4.0,53,0.00,,,0.00,Rainwise IP-100,2013-10-26 21:58:00,
2013-10-26 18:03:00,47.9,32.0,28.98,SW,225,2.0,6.0,52,0.00,,,0.00,Rainwise IP-100,2013-10-26 22:03:00,
2013-10-26 18:08:00,47.8,31.0,28.99,South,180,4.0,7.0,53,0.00,,,0.00,Rainwise IP-100,2013-10-26 22:08:00,
2013-10-26 18:13:00,48.1,31.0,28.99,SSW,202,8.0,17.0,51,0.00,,,0.00,Rainwise IP-100,2013-10-26 22:13:00,
2013-10-26 18:18:00,48.3,31.0,28.98,SSE,157,6.0,14.0,51,0.00,,,0.00,Rainwise IP-100,2013-10-26 22:18:00,
2013-10-26 18:23:00,48.2,32.0,28.98,South,180,4.0,12.0,52,0.00,,,0.00,Rainwise IP-100,2013-10-26 22:23:00,
2013-10-26 18:28:00,48.2,31.0,28.99,South,180,9.0,14.0,51,0.00,,,0.00,Rainwise IP-100,2013-10-26 22:28:00,
2013-10-26 18:33:00,48.2,31.0,28.99,SW,225,4.0,12.0,51,0.00,,,0.00,Rainwise IP-100,2013-10-26 22:33:00,
2013-10-26 18:38:00,48.1,32.0,28.99,SW,225,1.0,9.0,52,0.00,,,0.00,Rainwise IP-100,2013-10-26 22:38:00,
2013-10-26 18:43:00,47.8,31.0,28.99,SSE,157,2.0,7.0,53,0.00,,,0.00,Rainwise IP-100,2013-10-26 22:43:00,
2013-10-26 18:48:00,47.6,32.0,28.99,SW,225,3.0,6.0,54,0.00,,,0.00,Rainwise IP-100,2013-10-26 22:48:00,
2013-10-26 18:53:00,47.5,31.0,28.99,SSW,202,4.0,9.0,53,0.00,,,0.00,Rainwise IP-100,2013-10-26 22:53:00,
2013-10-26 18:58:00,47.7,31.0,28.99,SW,225,10.0,19.0,51,0.00,,,0.00,Rainwise IP-100,2013-10-26 22:58:00,
2013-10-26 19:03:00,47.7,31.0,28.99,SW,225,6.0,16.0,52,0.00,,,0.00,Rainwise IP-100,2013-10-26 23:03:00,
2013-10-26 19:08:00,47.5,32.0,28.99,SSE,157,2.0,11.0,54,0.00,,,0.00,Rainwise IP-100,2013-10-26 23:08:00,
2013-10-26 19:13:00,47.4,31.0,28.99,SSW,202,6.0,12.0,53,0.00,,,0.00,Rainwise IP-100,2013-10-26 23:13:00,
2013-10-26 19:18:00,47.3,31.0,28.99,South,180,5.0,15.0,54,0.00,,,0.00,Rainwise IP-100,2013-10-26 23:18:00,
2013-10-26 19:23:00,47.2,31.0,28.99,South,180,5.0,11.0,54,0.00,,,0.00,Rainwise IP-100,2013-10-26 23:23:00,
2013-10-26 19:28:00,47.2,32.0,28.99,SSW,202,7.0,11.0,55,0.00,,,0.00,Rainwise IP-100,2013-10-26 23:28:00,
2013-10-26 19:33:00,47.2,31.0,28.99,South,180,5.0,13.0,54,0.00,,,0.00,Rainwise IP-100,2013-10-26 23:33:00,
2013-10-26 19:38:00,47.4,31.0,28.99,South,180,6.0,12.0,53,0.00,,,0.00,Rainwise IP-100,2013-10-26 23:38:00,
2013-10-26 19:43:00,47.3,31.0,28.99,SSW,202,2.0,11.0,54,0.00,,,0.00,Rainwise IP-100,2013-10-26 23:43:00,
2013-10-26 19:48:00,47.2,31.0,28.99,WSW,247,11.0,12.0,54,0.00,,,0.00,Rainwise IP-100,2013-10-26 23:48:00,
2013-10-26 19:53:00,47.1,32.0,28.99,SSW,202,6.0,12.0,55,0.00,,,0.00,Rainwise IP-100,2013-10-26 23:53:00,
2013-10-26 19:58:00,46.9,32.0,28.99,SW,225,6.0,12.0,55,0.00,,,0.00,Rainwise IP-100,2013-10-26 23:58:00,
2013-10-26 20:03:00,46.9,32.0,28.98,SSE,157,12.0,17.0,55,0.00,,,0.00,Rainwise IP-100,2013-10-27 00:03:00,
2013-10-26 20:08:00,46.8,32.0,28.98,SSE,157,6.0,15.0,55,0.00,,,0.00,Rainwise IP-100,2013-10-27 00:08:00,
2013-10-26 20:13:00,46.7,32.0,28.98,South,180,8.0,17.0,55,0.00,,,0.00,Rainwise IP-100,2013-10-27 00:13:00,
2013-10-26 20:18:00,46.7,32.0,28.98,SSE,157,4.0,15.0,56,0.00,,,0.00,Rainwise IP-100,2013-10-27 00:18:00,
2013-10-26 20:23:00,46.6,32.0,28.98,South,180,5.0,17.0,55,0.00,,,0.00,Rainwise IP-100,2013-10-27 00:23:00,
2013-10-26 20:28:00,46.7,32.0,28.98,SSW,202,9.0,15.0,56,0.00,,,0.00,Rainwise IP-100,2013-10-27 00:28:00,
2013-10-26 20:33:00,46.6,32.0,28.98,South,180,9.0,13.0,57,0.00,,,0.00,Rainwise IP-100,2013-10-27 00:33:00,
2013-10-26 20:38:00,46.7,32.0,28.97,SSW,202,5.0,16.0,56,0.00,,,0.00,Rainwise IP-100,2013-10-27 00:38:00,
2013-10-26 20:43:00,46.5,32.0,28.98,South,180,9.0,12.0,57,0.00,,,0.00,Rainwise IP-100,2013-10-27 00:43:00,
2013-10-26 20:48:00,46.5,33.0,28.97,SW,225,5.0,11.0,58,0.00,,,0.00,Rainwise IP-100,2013-10-27 00:48:00,
2013-10-26 20:53:00,46.5,32.0,28.98,West,270,3.0,15.0,57,0.00,,,0.00,Rainwise IP-100,2013-10-27 00:53:00,
2013-10-26 20:58:00,46.3,32.0,28.98,SSW,202,2.0,14.0,59,0.00,,,0.00,Rainwise IP-100,2013-10-27 00:58:00,
2013-10-26 21:03:00,46.1,32.0,28.97,SE,135,10.0,11.0,59,0.00,,,0.00,Rainwise IP-100,2013-10-27 01:03:00,
2013-10-26 21:08:00,46.2,32.0,28.98,SE,135,6.0,15.0,58,0.00,,,0.00,Rainwise IP-100,2013-10-27 01:08:00,
2013-10-26 21:13:00,46.2,32.0,28.98,SSW,202,9.0,13.0,59,0.00,,,0.00,Rainwise IP-100,2013-10-27 01:13:00,
2013-10-26 21:18:00,46.1,33.0,28.97,SW,225,1.0,10.0,60,0.00,,,0.00,Rainwise IP-100,2013-10-27 01:18:00,
2013-10-26 21:23:00,46.0,33.0,28.98,SW,225,6.0,9.0,60,0.00,,,0.00,Rainwise IP-100,2013-10-27 01:23:00,
2013-10-26 21:28:00,45.9,33.0,28.98,South,180,7.0,11.0,60,0.00,,,0.00,Rainwise IP-100,2013-10-27 01:28:00,
2013-10-26 21:33:00,45.9,33.0,28.98,South,180,2.0,14.0,60,0.00,,,0.00,Rainwise IP-100,2013-10-27 01:33:00,
2013-10-26 21:38:00,45.9,33.0,28.98,SW,225,9.0,12.0,60,0.00,,,0.00,Rainwise IP-100,2013-10-27 01:38:00,
2013-10-26 21:43:00,45.9,33.0,28.98,SSW,202,6.0,14.0,60,0.00,,,0.00,Rainwise IP-100,2013-10-27 01:43:00,
2013-10-26 21:48:00,45.8,33.0,28.98,South,180,9.0,11.0,61,0.00,,,0.00,Rainwise IP-100,2013-10-27 01:48:00,
2013-10-26 21:53:00,45.8,33.0,28.98,South,180,6.0,17.0,61,0.00,,,0.00,Rainwise IP-100,2013-10-27 01:53:00,
2013-10-26 21:58:00,45.6,33.0,28.98,South,180,4.0,12.0,62,0.00,,,0.00,Rainwise IP-100,2013-10-27 01:58:00,
2013-10-26 22:03:00,45.6,33.0,28.98,East,90,2.0,11.0,62,0.00,,,0.00,Rainwise IP-100,2013-10-27 02:03:00,
2013-10-26 22:08:00,45.6,33.0,28.98,South,180,4.0,9.0,62,0.00,,,0.00,Rainwise IP-100,2013-10-27 02:08:00,
2013-10-26 22:13:00,45.5,35.0,28.99,South,180,4.0,12.0,63,0.00,,,0.00,Rainwise IP-100,2013-10-27 02:13:00,
2013-10-26 22:18:00,45.6,33.0,28.98,South,180,5.0,12.0,62,0.00,,,0.00,Rainwise IP-100,2013-10-27 02:18:00,
2013-10-26 22:23:00,45.6,33.0,28.98,South,180,4.0,13.0,62,0.00,,,0.00,Rainwise IP-100,2013-10-27 02:23:00,
2013-10-26 22:28:00,45.6,33.0,28.98,SSE,157,6.0,11.0,62,0.00,,,0.00,Rainwise IP-100,2013-10-27 02:28:00,
2013-10-26 22:33:00,45.6,35.0,28.98,SSE,157,4.0,10.0,63,0.00,,,0.00,Rainwise IP-100,2013-10-27 02:33:00,
2013-10-26 22:38:00,45.5,35.0,28.98,South,180,5.0,10.0,63,0.00,,,0.00,Rainwise IP-100,2013-10-27 02:38:00,
2013-10-26 22:43:00,45.4,33.0,28.98,SSW,202,3.0,11.0,64,0.00,,,0.00,Rainwise IP-100,2013-10-27 02:43:00,
2013-10-26 22:48:00,45.4,33.0,28.99,South,180,5.0,11.0,64,0.00,,,0.00,Rainwise IP-100,2013-10-27 02:48:00,
2013-10-26 22:53:00,45.3,33.0,28.99,SE,135,6.0,11.0,64,0.00,,,0.00,Rainwise IP-100,2013-10-27 02:53:00,
2013-10-26 22:58:00,45.2,33.0,28.99,South,180,4.0,7.0,64,0.00,,,0.00,Rainwise IP-100,2013-10-27 02:58:00,
2013-10-26 23:03:00,45.2,35.0,28.98,South,180,3.0,12.0,65,0.00,,,0.00,Rainwise IP-100,2013-10-27 03:03:00,
2013-10-26 23:08:00,45.1,35.0,28.98,SSW,202,4.0,10.0,65,0.00,,,0.00,Rainwise IP-100,2013-10-27 03:08:00,
2013-10-26 23:13:00,44.9,35.0,28.98,South,180,3.0,9.0,65,0.00,,,0.00,Rainwise IP-100,2013-10-27 03:13:00,
2013-10-26 23:18:00,44.9,35.0,28.98,South,180,1.0,7.0,65,0.00,,,0.00,Rainwise IP-100,2013-10-27 03:18:00,
2013-10-26 23:23:00,44.8,35.0,28.99,South,180,4.0,11.0,65,0.00,,,0.00,Rainwise IP-100,2013-10-27 03:23:00,
2013-10-26 23:28:00,44.7,35.0,28.99,South,180,4.0,7.0,66,0.00,,,0.00,Rainwise IP-100,2013-10-27 03:28:00,
2013-10-26 23:33:00,44.6,35.0,28.99,South,180,5.0,7.0,67,0.00,,,0.00,Rainwise IP-100,2013-10-27 03:33:00,
2013-10-26 23:38:00,44.7,35.0,28.99,South,180,4.0,9.0,67,0.00,,,0.00,Rainwise IP-100,2013-10-27 03:38:00,
2013-10-26 23:43:00,44.7,35.0,28.98,South,180,2.0,9.0,66,0.00,,,0.00,Rainwise IP-100,2013-10-27 03:43:00,
2013-10-26 23:48:00,44.7,35.0,28.99,WSW,247,1.0,5.0,67,0.00,,,0.00,Rainwise IP-100,2013-10-27 03:48:00,
2013-10-26 23:53:00,44.7,35.0,28.99,South,180,1.0,6.0,68,0.00,,,0.00,Rainwise IP-100,2013-10-27 03:53:00,
2013-10-26 23:58:00,44.7,35.0,28.99,SSW,202,6.0,6.0,68,0.00,,,0.00,Rainwise IP-100,2013-10-27 03:58:00,